Time;durP1;ratioP1;P1;durP2;ratioP2;P2;SDS_P1;SDS_P2;PMS_P1;PMS_P2;Temp;Humidity;BMP_temperature;BMP_pressure;BME280_temperature;BME280_humidity;BME280_pressure;Samples;Min_cycle;Max_cycle;Signal;HPM_P1;HPM_P2
2021/08/18 00:02:58;;;;;;;16.33;8.50;;;;;;;19.29;100.00;94456.69;10332426;28;20401;-71
2021/08/18 00:08:00;;;;;;;10.97;7.73;;;;;;;19.29;100.00;94453.94;10362004;28;20430;-71
2021/08/18 00:13:01;;;;;;;14.18;8.07;;;;;;;19.14;100.00;94447.19;10361519;28;20030;-71
2021/08/18 00:18:03;;;;;;;14.45;8.63;;;;;;;19.09;100.00;94445.47;10287220;28;20031;-71
2021/08/18 00:23:05;;;;;;;12.93;5.70;;;;;;;18.95;100.00;94444.97;10281696;28;20057;-71
2021/08/18 00:28:06;;;;;;;9.52;5.70;;;;;;;18.77;100.00;94436.13;10282314;28;20031;-71
2021/08/18 00:33:07;;;;;;;13.23;6.03;;;;;;;18.71;100.00;94419.19;10281792;28;20097;-71
2021/08/18 00:38:07;;;;;;;13.15;5.75;;;;;;;18.66;100.00;94419.38;10282252;28;20030;-71
2021/08/18 00:43:07;;;;;;;14.90;7.53;;;;;;;18.65;100.00;94406.09;10281261;28;20035;-71
2021/08/18 00:48:08;;;;;;;16.73;7.20;;;;;;;18.64;100.00;94397.13;10281718;28;20282;-71
2021/08/18 00:53:08;;;;;;;18.97;7.90;;;;;;;18.59;100.00;94394.63;10280620;28;20262;-71
2021/08/18 00:58:09;;;;;;;13.00;7.47;;;;;;;18.59;100.00;94391.91;10281549;28;20278;-71
2021/08/18 01:03:10;;;;;;;18.83;8.00;;;;;;;18.63;100.00;94409.16;10291558;28;20034;-71
2021/08/18 01:08:10;;;;;;;11.82;7.47;;;;;;;18.77;100.00;94414.34;10321688;28;20046;-72
2021/08/18 01:13:10;;;;;;;19.73;7.40;;;;;;;19.00;100.00;94414.00;10320735;28;20121;-71
2021/08/18 01:18:11;;;;;;;12.07;7.40;;;;;;;18.99;100.00;94437.72;10321264;28;20176;-72
2021/08/18 01:23:13;;;;;;;13.17;7.40;;;;;;;19.06;100.00;94437.16;10328075;28;20034;-72
2021/08/18 01:28:14;;;;;;;16.52;6.85;;;;;;;19.16;100.00;94447.66;10329702;28;20034;-72
2021/08/18 01:33:16;;;;;;;8.80;6.30;;;;;;;19.21;100.00;94455.63;10328372;28;20026;-72
2021/08/18 01:38:19;;;;;;;20.15;6.25;;;;;;;19.22;100.00;94445.53;10327715;28;20474;-72
2021/08/18 01:43:20;;;;;;;12.70;6.55;;;;;;;18.91;100.00;94453.00;10328714;28;20027;-74
2021/08/18 01:48:23;;;;;;;9.77;6.43;;;;;;;18.93;100.00;94460.84;10332827;28;20478;-71
2021/08/18 01:53:30;;;;;;;11.82;6.00;;;;;;;19.09;100.00;94461.03;10326277;28;20037;-72
2021/08/18 01:58:34;;;;;;;12.02;5.57;;;;;;;19.07;100.00;94464.06;10324597;28;20498;-72
2021/08/18 02:03:35;;;;;;;15.00;5.68;;;;;;;19.08;100.00;94448.53;10343268;28;20176;-72
2021/08/18 02:08:35;;;;;;;11.05;4.78;;;;;;;19.10;100.00;94463.44;10324170;28;20050;-71
2021/08/18 02:13:36;;;;;;;10.98;5.55;;;;;;;19.04;100.00;94466.69;10325426;28;20049;-72
2021/08/18 02:18:36;;;;;;;10.00;4.50;;;;;;;18.86;100.00;94461.34;10324496;28;20636;-71
2021/08/18 02:23:37;;;;;;;13.07;5.13;;;;;;;18.85;100.00;94454.31;10324864;28;20026;-72
2021/08/18 02:28:37;;;;;;;14.88;5.05;;;;;;;18.83;100.00;94478.34;10325627;28;20285;-72
2021/08/18 02:33:37;;;;;;;7.50;5.40;;;;;;;18.70;100.00;94473.94;10324456;28;20029;-72
2021/08/18 02:38:38;;;;;;;10.23;5.27;;;;;;;18.27;100.00;94468.44;10324986;28;20041;-71
2021/08/18 02:43:38;;;;;;;12.77;5.37;;;;;;;18.08;100.00;94468.88;10324066;28;20300;-72
2021/08/18 02:48:39;;;;;;;7.70;4.73;;;;;;;17.97;100.00;94464.13;10322966;28;20712;-72
2021/08/18 02:53:39;;;;;;;14.07;5.57;;;;;;;17.93;100.00;94478.38;10324935;28;20324;-72
2021/08/18 02:58:39;;;;;;;17.50;5.57;;;;;;;17.88;100.00;94475.00;10324385;28;20027;-71
2021/08/18 03:03:40;;;;;;;9.57;5.60;;;;;;;17.75;100.00;94479.53;10323303;28;20122;-72
2021/08/18 03:08:40;;;;;;;10.97;5.30;;;;;;;17.73;100.00;94468.97;10324168;28;20082;-71
2021/08/18 03:13:40;;;;;;;13.37;5.73;;;;;;;17.62;100.00;94480.53;10323035;28;20027;-72
2021/08/18 03:18:41;;;;;;;7.75;4.50;;;;;;;17.56;100.00;94477.97;10324522;28;20998;-71
2021/08/18 03:23:41;;;;;;;16.87;5.50;;;;;;;17.45;100.00;94481.38;10322366;28;20042;-72
2021/08/18 03:28:42;;;;;;;12.35;6.43;;;;;;;17.42;100.00;94483.59;10323642;28;20045;-72
2021/08/18 03:33:42;;;;;;;15.70;5.40;;;;;;;17.32;100.00;94472.28;10322607;28;20351;-72
2021/08/18 03:38:42;;;;;;;12.87;5.50;;;;;;;17.24;100.00;94471.97;10321495;28;20038;-71
2021/08/18 03:43:43;;;;;;;11.27;6.13;;;;;;;17.40;100.00;94487.75;10321507;28;20088;-71
2021/08/18 03:48:43;;;;;;;8.07;4.97;;;;;;;17.58;100.00;94505.63;10320538;28;20117;-71
2021/08/18 03:53:44;;;;;;;9.23;5.40;;;;;;;17.60;100.00;94502.59;10321075;28;20339;-71
2021/08/18 03:58:44;;;;;;;17.80;5.00;;;;;;;17.67;100.00;94505.59;10320780;28;20621;-71
2021/08/18 04:03:44;;;;;;;10.85;5.47;;;;;;;17.70;100.00;94517.75;10320842;28;20297;-71
2021/08/18 04:08:45;;;;;;;35.77;7.90;;;;;;;17.63;100.00;94514.75;10321477;28;20062;-71
2021/08/18 04:13:45;;;;;;;7.77;5.27;;;;;;;17.65;100.00;94515.22;10320717;28;20041;-71
2021/08/18 04:18:45;;;;;;;20.17;7.77;;;;;;;17.40;100.00;94523.06;10320989;28;20038;-71
2021/08/18 04:23:46;;;;;;;10.50;4.90;;;;;;;17.62;100.00;94524.00;10319927;28;20029;-71
2021/08/18 04:28:46;;;;;;;8.37;5.17;;;;;;;17.67;100.00;94534.72;10321354;28;20281;-71
2021/08/18 04:33:46;;;;;;;9.20;5.03;;;;;;;17.60;100.00;94527.84;10320309;28;21199;-71
2021/08/18 04:38:47;;;;;;;11.67;3.90;;;;;;;17.64;100.00;94533.44;10320217;28;20462;-71
2021/08/18 04:43:47;;;;;;;11.83;5.37;;;;;;;17.67;100.00;94532.00;10319136;28;20479;-71
2021/08/18 04:48:48;;;;;;;9.50;4.60;;;;;;;17.87;100.00;94544.88;10318984;28;20108;-73
2021/08/18 04:53:49;;;;;;;11.77;5.43;;;;;;;17.96;100.00;94542.19;10324563;28;20269;-71
2021/08/18 04:58:50;;;;;;;13.98;4.25;;;;;;;18.10;100.00;94556.38;10332180;28;20462;-73
2021/08/18 05:03:50;;;;;;;14.27;4.40;;;;;;;18.35;100.00;94561.22;10332610;28;20091;-73
2021/08/18 05:08:50;;;;;;;7.87;4.00;;;;;;;18.67;100.00;94562.53;10332337;28;20135;-73
2021/08/18 05:13:51;;;;;;;11.10;3.67;;;;;;;18.83;100.00;94565.47;10331972;28;20177;-73
2021/08/18 05:18:51;;;;;;;11.18;4.45;;;;;;;19.11;100.00;94557.63;10334720;28;20026;-72
2021/08/18 05:23:52;;;;;;;12.57;4.03;;;;;;;19.66;100.00;94560.38;10334805;28;20154;-73
2021/08/18 05:28:52;;;;;;;7.70;3.17;;;;;;;19.48;100.00;94557.03;10334929;28;20703;-73
2021/08/18 05:33:52;;;;;;;8.67;3.60;;;;;;;20.12;100.00;94553.03;10333796;28;20030;-73
2021/08/18 05:38:53;;;;;;;5.60;3.23;;;;;;;20.70;100.00;94540.47;10332813;28;20097;-73
2021/08/18 05:43:53;;;;;;;7.67;3.20;;;;;;;21.24;97.30;94556.53;10334203;28;20333;-72
2021/08/18 05:48:54;;;;;;;8.57;3.33;;;;;;;21.77;89.92;94550.22;10334712;28;20805;-72
2021/08/18 05:53:54;;;;;;;12.37;4.17;;;;;;;22.22;84.76;94562.75;10335064;28;20033;-72
2021/08/18 05:58:54;;;;;;;6.60;2.43;;;;;;;22.32;84.21;94558.69;10335599;28;20034;-73
2021/08/18 06:03:55;;;;;;;6.57;3.20;;;;;;;23.03;79.15;94556.88;10334921;28;20165;-73
2021/08/18 06:08:55;;;;;;;6.60;2.70;;;;;;;23.68;73.33;94552.81;10329224;28;20137;-73
2021/08/18 06:13:56;;;;;;;6.73;3.27;;;;;;;24.30;67.45;94551.22;10329156;28;20038;-73
2021/08/18 06:18:56;;;;;;;6.50;2.65;;;;;;;24.27;61.72;94546.47;10329067;28;20054;-71
2021/08/18 06:24:07;;;;;;;3.60;2.43;;;;;;;24.74;60.89;94551.59;10328507;28;20034;-72
2021/08/18 06:29:07;;;;;;;3.65;2.38;;;;;;;25.27;57.10;94547.25;10333908;28;20387;-72
2021/08/18 06:34:08;;;;;;;5.60;2.93;;;;;;;25.52;56.51;94546.81;10328304;28;20026;-72
2021/08/18 06:39:08;;;;;;;16.70;2.80;;;;;;;26.02;52.41;94543.88;10327965;28;20032;-72
2021/08/18 06:44:08;;;;;;;6.70;2.60;;;;;;;26.04;51.16;94545.06;10328074;28;20299;-72
2021/08/18 06:49:09;;;;;;;5.23;2.37;;;;;;;27.14;47.02;94542.06;10327140;28;20030;-72
2021/08/18 06:54:10;;;;;;;5.72;2.00;;;;;;;27.07;46.76;94540.03;10327727;28;20023;-71
2021/08/18 06:59:10;;;;;;;7.53;2.58;;;;;;;27.99;43.76;94540.91;10327784;28;20034;-71
2021/08/18 07:04:11;;;;;;;6.03;1.73;;;;;;;28.30;42.87;94533.13;10326909;28;20042;-71
2021/08/18 07:09:11;;;;;;;6.73;3.97;;;;;;;28.00;42.93;94528.69;10327138;28;20062;-72
2021/08/18 07:14:11;;;;;;;3.87;2.10;;;;;;;26.91;46.80;94527.34;10326662;28;20022;-72
2021/08/18 07:19:12;;;;;;;11.27;2.83;;;;;;;28.27;44.43;94537.44;10324918;28;20026;-72
2021/08/18 07:24:12;;;;;;;11.77;3.20;;;;;;;29.53;41.15;94531.06;10326468;28;20025;-72
2021/08/18 07:29:13;;;;;;;9.00;3.27;;;;;;;27.10;46.20;94523.53;10326427;28;20038;-72
2021/08/18 07:34:13;;;;;;;14.20;8.63;;;;;;;26.15;48.69;94523.16;10326085;28;20061;-71
2021/08/18 07:39:13;;;;;;;8.23;3.03;;;;;;;26.43;49.80;94530.88;10325906;28;20042;-72
2021/08/18 07:44:14;;;;;;;7.50;3.00;;;;;;;27.74;45.65;94525.06;10325203;28;20535;-72
2021/08/18 07:49:14;;;;;;;7.53;3.40;;;;;;;27.55;45.30;94533.66;10323348;28;20037;-72
2021/08/18 07:54:15;;;;;;;13.52;3.42;;;;;;;29.17;42.22;94528.38;10324941;28;20037;-72
2021/08/18 07:59:15;;;;;;;5.77;3.23;;;;;;;30.48;38.73;94521.91;10325503;28;20045;-72
2021/08/18 08:04:15;;;;;;;7.57;2.67;;;;;;;31.15;36.70;94518.19;10323192;28;20034;-72
2021/08/18 08:09:16;;;;;;;4.03;2.70;;;;;;;31.69;37.49;94517.59;10324940;28;20121;-72
2021/08/18 08:14:16;;;;;;;9.30;3.07;;;;;;;33.56;34.62;94520.31;10324826;28;20084;-72
2021/08/18 08:19:16;;;;;;;8.87;2.70;;;;;;;33.56;33.15;94508.34;10323002;28;20049;-72
2021/08/18 08:24:17;;;;;;;10.23;2.73;;;;;;;34.63;32.44;94506.50;10323943;28;20034;-72
2021/08/18 08:29:17;;;;;;;11.50;2.93;;;;;;;34.58;31.77;94505.81;10324052;28;20281;-72
2021/08/18 08:34:19;;;;;;;10.13;3.37;;;;;;;35.07;31.13;94498.66;10323363;28;20026;-72
2021/08/18 08:39:19;;;;;;;8.30;5.25;;;;;;;30.78;36.40;94498.25;10323783;28;20034;-72
2021/08/18 08:44:22;;;;;;;14.53;4.80;;;;;;;30.30;39.41;94497.03;10322484;28;20470;-72
2021/08/18 08:49:22;;;;;;;14.60;4.93;;;;;;;28.99;42.22;94490.44;10323698;28;20114;-72
2021/08/18 08:54:23;;;;;;;11.47;5.00;;;;;;;29.12;42.91;94493.59;10323083;28;20030;-71
2021/08/18 08:59:23;;;;;;;8.57;5.40;;;;;;;32.31;36.90;94487.03;10323510;28;20277;-72
2021/08/18 09:04:43;;;;;;;9.20;5.30;;;;;;;33.87;34.66;94480.31;10323351;28;20022;-72
2021/08/18 09:09:53;;;;;;;9.10;4.53;;;;;;;35.34;31.47;94478.03;10323869;28;20041;-72
2021/08/18 09:14:53;;;;;;;10.57;5.05;;;;;;;34.86;31.93;94464.47;10323204;28;20073;-72
2021/08/18 09:20:15;;;;;;;13.03;4.67;;;;;;;34.97;32.34;94466.19;10322986;28;20137;-72
2021/08/18 09:25:28;;;;;;;10.70;4.70;;;;;;;33.77;33.33;94459.00;10323034;28;20089;-71
2021/08/18 09:30:30;;;;;;;10.30;4.90;;;;;;;30.64;38.73;94459.56;10322578;28;20018;-72
2021/08/18 09:35:31;;;;;;;10.32;6.03;;;;;;;30.18;39.24;94453.16;10322427;28;20038;-71
2021/08/18 09:40:40;;;;;;;13.40;6.22;;;;;;;31.86;36.45;94447.13;10324251;28;20037;-71
2021/08/18 09:46:02;;;;;;;7.38;5.28;;;;;;;33.45;34.43;94444.50;10329889;28;20552;-71
2021/08/18 09:51:09;;;;;;;13.25;5.40;;;;;;;35.14;32.69;94430.63;10329586;28;20033;-72
2021/08/18 09:56:11;;;;;;;9.52;5.07;;;;;;;35.49;31.25;94439.28;10333745;28;20102;-72
2021/08/18 10:01:16;;;;;;;12.82;4.95;;;;;;;37.32;29.58;94432.72;10329575;28;20030;-72
2021/08/18 10:06:17;;;;;;;11.50;4.53;;;;;;;38.79;27.55;94423.44;10329328;28;20082;-72
2021/08/18 10:11:18;;;;;;;7.43;4.93;;;;;;;38.58;27.03;94419.47;10329006;28;20109;-72
2021/08/18 10:16:19;;;;;;;12.60;4.80;;;;;;;38.70;28.19;94414.22;10327440;28;20033;-72
2021/08/18 10:21:46;;;;;;;11.93;5.22;;;;;;;39.82;26.06;94404.53;10328724;28;20033;-72
2021/08/18 10:26:48;;;;;;;8.07;5.28;;;;;;;40.61;25.40;94403.59;10325283;28;20045;-72
2021/08/18 10:31:48;;;;;;;9.68;4.70;;;;;;;40.52;25.46;94391.63;10327218;28;20025;-72
2021/08/18 10:36:52;;;;;;;10.65;4.88;;;;;;;41.40;24.41;94389.56;10327626;28;20034;-72
2021/08/18 10:42:13;;;;;;;13.77;4.38;;;;;;;37.54;27.62;94387.84;10327106;28;20114;-72
2021/08/18 10:47:16;;;;;;;11.65;5.00;;;;;;;38.69;27.60;94384.59;10327682;28;20034;-72
2021/08/18 10:52:29;;;;;;;5.97;4.28;;;;;;;37.68;27.38;94383.72;10327246;28;20062;-72
2021/08/18 10:57:49;;;;;;;10.13;4.97;;;;;;;38.97;27.47;94368.53;10327031;28;20027;-72
2021/08/18 11:02:55;;;;;;;7.85;4.38;;;;;;;40.16;24.94;94365.94;10326962;28;20457;-72
2021/08/18 11:08:17;;;;;;;8.68;4.82;;;;;;;38.45;27.34;94363.47;10325845;28;20058;-72
2021/08/18 11:13:33;;;;;;;9.95;4.93;;;;;;;40.02;25.49;94356.13;10326935;28;20797;-72
2021/08/18 11:18:35;;;;;;;9.20;5.90;;;;;;;37.88;27.92;94358.13;10326219;28;20113;-72
2021/08/18 11:23:36;;;;;;;9.52;5.47;;;;;;;35.71;30.48;94347.16;10326535;28;20489;-72
2021/08/18 11:28:37;;;;;;;14.23;6.73;;;;;;;32.56;34.66;94355.88;10325878;28;20033;-72
2021/08/18 11:33:37;;;;;;;10.80;6.88;;;;;;;32.10;35.68;94355.44;10325920;28;20023;-71
2021/08/18 11:38:38;;;;;;;10.02;6.20;;;;;;;31.64;36.87;94354.94;10325198;28;20026;-72
2021/08/18 11:43:43;;;;;;;17.77;7.40;;;;;;;30.03;39.58;94349.16;10325584;28;20053;-71
2021/08/18 11:48:43;;;;;;;11.02;6.38;;;;;;;30.26;40.07;94343.03;10325541;28;20022;-72
2021/08/18 11:53:54;;;;;;;13.53;6.57;;;;;;;30.00;40.79;94323.06;10325215;28;20026;-71
2021/08/18 11:59:00;;;;;;;12.80;6.47;;;;;;;29.24;42.47;94329.09;10324875;28;20335;-72
2021/08/18 12:04:03;;;;;;;11.75;6.20;;;;;;;29.86;41.80;94320.41;10324517;28;20034;-72
2021/08/18 12:09:19;;;;;;;13.25;6.63;;;;;;;29.41;42.52;94310.81;10323804;28;20046;-72
2021/08/18 12:14:22;;;;;;;13.07;6.53;;;;;;;29.49;41.92;94311.56;10324590;28;20061;-72
2021/08/18 12:19:25;;;;;;;13.68;7.45;;;;;;;29.97;41.06;94293.41;10324124;28;20165;-71
2021/08/18 12:24:28;;;;;;;9.57;6.15;;;;;;;30.03;40.52;94294.53;10324386;28;20095;-71
2021/08/18 12:29:30;;;;;;;13.63;7.07;;;;;;;29.99;41.08;94294.56;10323965;28;20064;-72
2021/08/18 12:34:33;;;;;;;15.00;7.50;;;;;;;29.64;41.87;94295.63;10323531;28;20018;-72
2021/08/18 12:39:58;;;;;;;22.50;8.00;;;;;;;29.76;41.85;94291.56;10324079;28;20053;-72
2021/08/18 12:44:59;;;;;;;12.07;6.97;;;;;;;29.49;41.86;94290.19;10314908;28;20046;-72
2021/08/18 12:50:00;;;;;;;13.63;6.82;;;;;;;29.64;42.40;94290.88;10323467;28;20058;-72
2021/08/18 12:55:02;;;;;;;10.75;7.32;;;;;;;29.74;40.79;94278.13;10323417;28;20109;-72
2021/08/18 13:00:05;;;;;;;13.70;8.10;;;;;;;29.76;41.02;94280.50;10323683;28;20092;-72
2021/08/18 13:05:06;;;;;;;10.23;6.57;;;;;;;29.77;40.83;94263.47;10322434;28;20054;-72
2021/08/18 13:10:08;;;;;;;17.15;7.13;;;;;;;29.45;41.52;94267.28;10323276;28;20030;-72
2021/08/18 13:15:09;;;;;;;11.65;7.45;;;;;;;29.53;41.73;94273.56;10326403;28;20020;-72
2021/08/18 13:20:10;;;;;;;14.23;7.95;;;;;;;29.37;41.36;94253.91;10331557;28;20404;-72
2021/08/18 13:25:11;;;;;;;16.38;7.65;;;;;;;29.33;41.57;94248.38;10329791;28;20429;-72
2021/08/18 13:30:12;;;;;;;17.75;7.32;;;;;;;29.43;41.18;94247.53;10331361;28;20049;-72
2021/08/18 13:35:12;;;;;;;24.52;7.82;;;;;;;29.31;41.59;94236.94;10330119;28;20057;-72
2021/08/18 13:40:13;;;;;;;16.67;9.07;;;;;;;29.27;41.03;94236.16;10329997;28;20129;-72
2021/08/18 13:45:13;;;;;;;9.98;6.72;;;;;;;29.27;41.13;94228.66;10326072;28;20026;-72
2021/08/18 13:50:13;;;;;;;11.20;6.90;;;;;;;29.15;41.02;94221.59;10334879;28;20034;-72
2021/08/18 13:55:14;;;;;;;15.10;7.70;;;;;;;28.92;40.94;94227.66;10325938;28;20477;-72
2021/08/18 14:00:15;;;;;;;15.70;8.77;;;;;;;28.97;41.39;94224.47;10327694;28;20288;-72
2021/08/18 14:05:17;;;;;;;21.65;8.80;;;;;;;29.01;41.38;94218.94;10325703;28;20398;-72
2021/08/18 14:10:18;;;;;;;21.45;9.05;;;;;;;28.92;41.27;94224.13;10326040;28;20097;-72
2021/08/18 14:15:19;;;;;;;19.13;9.45;;;;;;;28.95;41.35;94217.75;10326406;28;20018;-72
2021/08/18 14:20:19;;;;;;;19.67;11.75;;;;;;;28.77;40.99;94224.19;10327361;28;20505;-72
2021/08/18 14:25:20;;;;;;;18.83;9.47;;;;;;;28.50;41.60;94221.13;10326479;28;20022;-72
2021/08/18 14:30:20;;;;;;;19.42;9.38;;;;;;;28.60;41.64;94214.75;10338720;28;20280;-72
2021/08/18 14:35:21;;;;;;;21.17;10.07;;;;;;;28.43;42.52;94219.19;10326852;28;20031;-72
2021/08/18 14:40:21;;;;;;;14.27;8.90;;;;;;;27.92;43.34;94213.00;10326741;28;20390;-72
2021/08/18 14:45:22;;;;;;;16.67;7.95;;;;;;;27.99;44.41;94223.25;10325666;28;20121;-72
2021/08/18 14:50:23;;;;;;;17.95;7.22;;;;;;;27.79;43.80;94225.66;10325888;28;20029;-72
2021/08/18 14:55:23;;;;;;;14.70;7.32;;;;;;;27.80;44.96;94227.22;10326538;28;20841;-72
2021/08/18 15:00:23;;;;;;;13.17;6.50;;;;;;;27.58;44.82;94240.25;10324018;28;20037;-72
2021/08/18 15:05:24;;;;;;;14.27;5.87;;;;;;;27.15;46.03;94254.00;10323810;28;20050;-72
2021/08/18 15:10:24;;;;;;;14.73;6.90;;;;;;;26.76;47.01;94270.06;10325449;28;20030;-72
2021/08/18 15:15:25;;;;;;;14.25;6.57;;;;;;;26.87;46.23;94274.81;10325447;28;20053;-72
2021/08/18 15:20:25;;;;;;;12.20;5.53;;;;;;;26.65;47.47;94276.69;10324877;28;20030;-72
2021/08/18 15:25:25;;;;;;;11.50;5.33;;;;;;;26.50;46.90;94287.66;10325237;28;20343;-72
2021/08/18 15:30:26;;;;;;;16.67;5.20;;;;;;;26.39;46.97;94300.59;10323715;28;20045;-72
2021/08/18 15:35:27;;;;;;;8.25;3.80;;;;;;;26.33;47.80;94310.38;10324456;28;20208;-72
2021/08/18 15:40:29;;;;;;;11.10;3.83;;;;;;;25.42;50.43;94312.44;10323068;28;20030;-72
2021/08/18 15:45:30;;;;;;;15.48;4.13;;;;;;;25.42;50.95;94315.19;10329230;28;20034;-72
2021/08/18 15:50:30;;;;;;;10.27;3.85;;;;;;;25.52;50.51;94323.91;10324063;28;20508;-72
2021/08/18 15:55:30;;;;;;;10.30;3.77;;;;;;;25.15;51.83;94321.97;10323861;28;20022;-72
2021/08/18 16:00:32;;;;;;;8.40;5.37;;;;;;;25.33;52.10;94331.22;10323844;28;20030;-72
2021/08/18 16:05:32;;;;;;;9.50;3.80;;;;;;;25.15;51.47;94327.47;10323276;28;20042;-72
2021/08/18 16:10:33;;;;;;;5.95;2.97;;;;;;;24.32;58.41;94346.47;10322508;28;20524;-72
2021/08/18 16:15:33;;;;;;;7.67;3.30;;;;;;;23.48;59.16;94359.22;10322732;28;20124;-72
2021/08/18 16:20:35;;;;;;;6.28;3.15;;;;;;;23.00;60.17;94379.47;10321679;28;20089;-72
2021/08/18 16:25:35;;;;;;;5.50;3.10;;;;;;;22.56;62.42;94385.19;10322331;28;20065;-72
2021/08/18 16:30:36;;;;;;;8.87;3.40;;;;;;;22.34;63.98;94403.09;10322776;28;20053;-72
2021/08/18 16:35:38;;;;;;;6.15;2.30;;;;;;;22.60;64.02;94399.75;10322596;28;20308;-72
2021/08/18 16:40:39;;;;;;;7.72;2.63;;;;;;;22.48;62.59;94408.91;10322289;28;20034;-72
2021/08/18 16:45:40;;;;;;;7.33;2.60;;;;;;;22.52;61.86;94419.94;10322381;28;20034;-72
2021/08/18 16:50:41;;;;;;;5.60;2.17;;;;;;;22.38;60.43;94427.84;10321795;28;21054;-72
2021/08/18 16:55:41;;;;;;;6.40;2.50;;;;;;;22.26;61.53;94436.94;10322176;28;20054;-72
2021/08/18 17:00:42;;;;;;;3.20;1.73;;;;;;;22.24;63.26;94437.25;10321925;28;20026;-72
2021/08/18 17:05:42;;;;;;;4.03;2.30;;;;;;;22.10;65.96;94434.97;10321829;28;20050;-72
2021/08/18 17:10:43;;;;;;;5.07;2.65;;;;;;;21.94;67.38;94442.41;10321741;28;20033;-72
2021/08/18 17:15:43;;;;;;;8.85;2.65;;;;;;;21.80;68.94;94451.06;10321930;28;20026;-72
2021/08/18 17:20:45;;;;;;;7.57;2.87;;;;;;;21.82;69.49;94443.28;10321409;28;20104;-72
2021/08/18 17:25:45;;;;;;;4.95;2.42;;;;;;;21.61;72.33;94438.84;10319554;28;20269;-72
2021/08/18 17:30:48;;;;;;;12.30;5.67;;;;;;;21.56;73.75;94461.00;10321441;28;20031;-72
2021/08/18 17:35:48;;;;;;;10.88;7.07;;;;;;;21.43;77.29;94460.22;10320065;28;20422;-72
2021/08/18 17:40:49;;;;;;;7.83;3.03;;;;;;;21.30;82.82;94462.22;10321238;28;20126;-72
2021/08/18 17:45:51;;;;;;;5.68;3.40;;;;;;;21.15;88.88;94471.97;10320857;28;20125;-71
2021/08/18 17:50:52;;;;;;;5.47;3.28;;;;;;;20.97;100.00;94471.47;10321078;28;20022;-72
2021/08/18 17:55:52;;;;;;;9.33;3.90;;;;;;;20.59;100.00;94463.66;10321859;28;20032;-72
2021/08/18 18:00:53;;;;;;;9.00;4.33;;;;;;;20.36;100.00;94477.78;10323659;28;20026;-72
2021/08/18 18:05:53;;;;;;;12.20;4.87;;;;;;;19.70;100.00;94505.97;10329182;28;20166;-72
2021/08/18 18:10:54;;;;;;;11.60;4.88;;;;;;;18.81;100.00;94535.06;10290062;28;20345;-72
2021/08/18 18:15:54;;;;;;;8.00;3.95;;;;;;;18.33;100.00;94547.94;10288970;28;20026;-72
2021/08/18 18:20:55;;;;;;;8.30;4.03;;;;;;;18.00;100.00;94550.47;10287253;28;20375;-72
2021/08/18 18:25:55;;;;;;;7.35;3.45;;;;;;;18.05;100.00;94545.66;10287574;28;20431;-72
2021/08/18 18:30:56;;;;;;;6.57;4.80;;;;;;;17.89;100.00;94545.38;10287535;28;20023;-72
2021/08/18 18:35:56;;;;;;;7.80;4.55;;;;;;;17.53;100.00;94551.22;10287155;28;20474;-72
2021/08/18 18:40:59;;;;;;;11.40;5.40;;;;;;;17.40;100.00;94559.19;10286810;28;20391;-72
2021/08/18 18:46:00;;;;;;;7.38;4.07;;;;;;;17.36;100.00;94562.91;10285833;28;20517;-71
2021/08/18 18:51:00;;;;;;;7.67;4.73;;;;;;;17.19;100.00;94575.34;10285466;28;20105;-72
2021/08/18 18:56:01;;;;;;;6.20;4.37;;;;;;;17.36;100.00;94560.97;10286097;28;20030;-72
2021/08/18 19:01:01;;;;;;;7.78;3.70;;;;;;;17.66;100.00;94568.44;10285696;28;20373;-72
2021/08/18 19:06:02;;;;;;;6.50;3.40;;;;;;;17.70;100.00;94569.41;10285606;28;20190;-71
2021/08/18 19:11:03;;;;;;;6.47;3.08;;;;;;;17.91;100.00;94567.59;10298859;28;20278;-71
2021/08/18 19:16:04;;;;;;;6.15;3.40;;;;;;;17.75;100.00;94582.84;10311561;28;20486;-71
2021/08/18 19:21:04;;;;;;;7.25;3.45;;;;;;;17.58;100.00;94589.06;10325733;28;20062;-71
2021/08/18 19:26:04;;;;;;;7.63;3.50;;;;;;;17.68;100.00;94583.31;10313403;28;20023;-72
2021/08/18 19:31:05;;;;;;;5.17;3.13;;;;;;;17.60;100.00;94590.34;10285272;28;20026;-72
2021/08/18 19:36:08;;;;;;;5.35;2.60;;;;;;;17.50;100.00;94592.59;10317610;28;20107;-72
2021/08/18 19:41:08;;;;;;;5.90;3.03;;;;;;;17.68;100.00;94598.81;10325995;28;20793;-72
2021/08/18 19:46:09;;;;;;;10.50;3.50;;;;;;;17.82;100.00;94599.44;10324977;28;20034;-72
2021/08/18 19:51:09;;;;;;;10.02;2.90;;;;;;;17.99;100.00;94604.06;10325054;28;20394;-72
2021/08/18 19:56:09;;;;;;;4.13;2.75;;;;;;;17.90;100.00;94592.38;10324836;28;20034;-72
2021/08/18 20:01:10;;;;;;;6.85;3.10;;;;;;;17.98;100.00;94601.69;10323464;28;20034;-72
2021/08/18 20:06:14;;;;;;;5.22;2.35;;;;;;;17.70;100.00;94600.09;10323291;28;20058;-73
2021/08/18 20:11:15;;;;;;;5.05;2.90;;;;;;;17.10;100.00;94615.25;10346842;28;20030;-72
2021/08/18 20:16:16;;;;;;;5.07;3.22;;;;;;;17.00;100.00;94616.38;10363345;28;20022;-72
2021/08/18 20:21:17;;;;;;;5.78;3.47;;;;;;;16.83;100.00;94619.81;10305189;28;20027;-72
2021/08/18 20:26:17;;;;;;;9.77;4.15;;;;;;;16.86;100.00;94626.53;10283276;28;20034;-72
2021/08/18 20:31:18;;;;;;;9.93;3.50;;;;;;;16.89;100.00;94631.34;10283669;28;20026;-72
2021/08/18 20:36:19;;;;;;;5.20;3.08;;;;;;;17.02;100.00;94640.47;10282984;28;20031;-71
2021/08/18 20:41:20;;;;;;;10.18;3.40;;;;;;;17.10;100.00;94647.84;10283257;28;20445;-72
2021/08/18 20:46:20;;;;;;;5.93;2.67;;;;;;;17.28;100.00;94640.53;10283064;28;20085;-72
2021/08/18 20:51:20;;;;;;;8.00;2.90;;;;;;;17.33;100.00;94650.44;10281315;28;20784;-72
2021/08/18 20:56:21;;;;;;;5.23;2.67;;;;;;;17.34;100.00;94639.25;10281694;28;20270;-72
2021/08/18 21:01:21;;;;;;;4.87;2.87;;;;;;;17.13;100.00;94638.28;10282417;28;20089;-72
2021/08/18 21:06:22;;;;;;;5.53;2.75;;;;;;;17.22;100.00;94639.09;10282320;28;20091;-72
2021/08/18 21:11:22;;;;;;;4.80;2.70;;;;;;;17.16;100.00;94649.28;10305612;28;20026;-71
2021/08/18 21:16:23;;;;;;;4.22;2.72;;;;;;;16.96;100.00;94649.91;10322364;28;20037;-72
2021/08/18 21:21:24;;;;;;;4.65;2.60;;;;;;;16.94;100.00;94649.41;10321736;28;20495;-72
2021/08/18 21:26:24;;;;;;;4.30;2.30;;;;;;;16.81;100.00;94637.53;10322700;28;20050;-72
2021/08/18 21:31:25;;;;;;;3.85;2.58;;;;;;;16.67;100.00;94643.06;10321919;28;20022;-73
2021/08/18 21:36:25;;;;;;;7.17;2.97;;;;;;;16.63;100.00;94650.25;10324667;28;20049;-72
2021/08/18 21:41:26;;;;;;;3.97;2.33;;;;;;;16.61;100.00;94655.19;10345199;28;20022;-72
2021/08/18 21:46:26;;;;;;;3.60;2.47;;;;;;;16.61;100.00;94653.28;10329563;28;20026;-72
2021/08/18 21:51:27;;;;;;;5.97;2.38;;;;;;;16.81;100.00;94654.59;10330360;28;20018;-72
2021/08/18 21:56:27;;;;;;;4.73;2.63;;;;;;;16.64;100.00;94660.78;10329691;28;20045;-72
2021/08/18 22:01:27;;;;;;;4.20;2.33;;;;;;;16.61;100.00;94666.03;10328276;28;20429;-72
2021/08/18 22:06:28;;;;;;;2.90;2.20;;;;;;;16.71;100.00;94665.75;10327590;28;20055;-72
2021/08/18 22:11:28;;;;;;;4.63;2.47;;;;;;;16.54;100.00;94661.06;10327105;28;20022;-72
2021/08/18 22:16:29;;;;;;;4.83;2.27;;;;;;;16.69;100.00;94657.94;10327139;28;20077;-72
2021/08/18 22:21:30;;;;;;;7.85;2.78;;;;;;;16.49;100.00;94664.69;10325838;28;20084;-72
2021/08/18 22:26:30;;;;;;;3.28;2.08;;;;;;;16.65;100.00;94661.59;10326496;28;20026;-71
2021/08/18 22:31:30;;;;;;;4.53;2.42;;;;;;;16.54;100.00;94666.50;10327090;28;20029;-72
2021/08/18 22:36:31;;;;;;;5.37;2.83;;;;;;;16.44;100.00;94664.84;10326825;28;20018;-72
2021/08/18 22:41:31;;;;;;;5.03;2.90;;;;;;;16.49;100.00;94663.91;10327289;28;20089;-72
2021/08/18 22:46:32;;;;;;;4.30;2.43;;;;;;;16.36;100.00;94673.75;10326667;28;20387;-72
2021/08/18 22:51:32;;;;;;;3.45;2.17;;;;;;;16.46;100.00;94665.31;10326714;28;20826;-72
2021/08/18 22:56:33;;;;;;;6.43;2.40;;;;;;;16.58;100.00;94662.03;10326435;28;20100;-72
2021/08/18 23:01:33;;;;;;;4.17;2.23;;;;;;;16.70;100.00;94664.97;10326646;28;20036;-72
2021/08/18 23:06:34;;;;;;;5.90;2.30;;;;;;;16.68;100.00;94666.38;10325563;28;20309;-72